sensor_id;sensor_type;location;lat;lon;timestamp;pressure;altitude;pressure_sealevel;temperature;humidity
61568;BME280;47462;59.172;17.196;2022-11-28T00:01:21;102274.41;;;3.02;86.70
61568;BME280;47462;59.172;17.196;2022-11-28T00:03:47;102273.56;;;3.03;86.25
61568;BME280;47462;59.172;17.196;2022-11-28T00:06:13;102193.19;;;2.56;86.21
61568;BME280;47462;59.172;17.196;2022-11-28T00:08:38;102233.41;;;2.81;86.35
61568;BME280;47462;59.172;17.196;2022-11-28T00:11:08;102245.00;;;2.96;86.51
61568;BME280;47462;59.172;17.196;2022-11-28T00:13:34;102264.00;;;2.99;86.26
61568;BME280;47462;59.172;17.196;2022-11-28T00:16:02;102233.72;;;2.92;86.06
61568;BME280;47462;59.172;17.196;2022-11-28T00:18:29;102232.94;;;2.95;86.50
61568;BME280;47462;59.172;17.196;2022-11-28T00:21:14;102265.16;;;3.11;85.83
61568;BME280;47462;59.172;17.196;2022-11-28T00:23:41;102262.56;;;3.11;86.34
61568;BME280;47462;59.172;17.196;2022-11-28T00:26:10;102266.88;;;3.10;85.96
61568;BME280;47462;59.172;17.196;2022-11-28T00:28:35;102167.34;;;2.53;85.62
61568;BME280;47462;59.172;17.196;2022-11-28T00:31:02;102198.59;;;2.65;86.14
61568;BME280;47462;59.172;17.196;2022-11-28T00:33:27;102137.53;;;2.32;86.12
61568;BME280;47462;59.172;17.196;2022-11-28T00:35:58;102187.31;;;2.62;85.87
61568;BME280;47462;59.172;17.196;2022-11-28T00:38:23;102261.47;;;3.01;85.80
61568;BME280;47462;59.172;17.196;2022-11-28T00:40:57;102258.84;;;2.99;85.77
61568;BME280;47462;59.172;17.196;2022-11-28T00:43:23;102155.88;;;2.43;86.08
61568;BME280;47462;59.172;17.196;2022-11-28T00:45:48;102213.50;;;2.76;86.05
61568;BME280;47462;59.172;17.196;2022-11-28T00:48:14;102150.69;;;2.42;85.85
61568;BME280;47462;59.172;17.196;2022-11-28T00:50:39;102230.09;;;2.85;86.13
61568;BME280;47462;59.172;17.196;2022-11-28T00:53:04;102131.25;;;2.23;85.79
61568;BME280;47462;59.172;17.196;2022-11-28T00:55:30;102211.66;;;2.72;85.95
61568;BME280;47462;59.172;17.196;2022-11-28T00:57:55;102168.47;;;2.32;85.95
61568;BME280;47462;59.172;17.196;2022-11-28T01:00:21;102203.38;;;2.52;85.76
61568;BME280;47462;59.172;17.196;2022-11-28T01:02:46;102171.03;;;2.32;85.75
61568;BME280;47462;59.172;17.196;2022-11-28T01:05:12;102257.41;;;2.79;85.98
61568;BME280;47462;59.172;17.196;2022-11-28T01:07:37;102186.50;;;2.32;85.92
61568;BME280;47462;59.172;17.196;2022-11-28T01:10:07;102256.47;;;2.77;86.08
61568;BME280;47462;59.172;17.196;2022-11-28T01:12:34;102192.88;;;2.45;85.87
61568;BME280;47462;59.172;17.196;2022-11-28T01:14:59;102203.38;;;2.52;85.97
61568;BME280;47462;59.172;17.196;2022-11-28T01:17:25;102193.75;;;2.46;85.77
61568;BME280;47462;59.172;17.196;2022-11-28T01:19:50;102163.88;;;2.22;86.01
61568;BME280;47462;59.172;17.196;2022-11-28T01:22:15;102190.28;;;2.44;85.95
61568;BME280;47462;59.172;17.196;2022-11-28T01:24:41;102216.44;;;2.58;85.71
61568;BME280;47462;59.172;17.196;2022-11-28T01:27:06;102241.53;;;2.63;86.03
61568;BME280;47462;59.172;17.196;2022-11-28T01:29:32;102229.31;;;2.58;85.62
61568;BME280;47462;59.172;17.196;2022-11-28T01:31:57;102079.03;;;1.68;85.54
61568;BME280;47462;59.172;17.196;2022-11-28T01:34:23;102031.22;;;1.46;85.77
61568;BME280;47462;59.172;17.196;2022-11-28T01:36:48;102104.22;;;1.78;85.75
61568;BME280;47462;59.172;17.196;2022-11-28T01:39:14;102141.63;;;1.95;86.00
61568;BME280;47462;59.172;17.196;2022-11-28T01:41:40;102154.69;;;2.02;85.40
61568;BME280;47462;59.172;17.196;2022-11-28T01:46:37;102200.34;;;2.07;85.50
61568;BME280;47462;59.172;17.196;2022-11-28T01:49:33;102225.25;;;2.07;85.56
61568;BME280;47462;59.172;17.196;2022-11-28T01:52:02;102217.09;;;1.94;85.74
61568;BME280;47462;59.172;17.196;2022-11-28T01:54:30;102147.47;;;1.61;85.82
61568;BME280;47462;59.172;17.196;2022-11-28T01:57:03;102171.72;;;1.69;85.89
61568;BME280;47462;59.172;17.196;2022-11-28T01:59:34;102125.88;;;1.57;86.04
61568;BME280;47462;59.172;17.196;2022-11-28T02:02:04;102148.41;;;1.65;85.87
61568;BME280;47462;59.172;17.196;2022-11-28T02:04:32;102164.78;;;1.67;85.79
61568;BME280;47462;59.172;17.196;2022-11-28T02:06:58;102227.09;;;2.12;86.01
61568;BME280;47462;59.172;17.196;2022-11-28T02:09:24;102218.19;;;2.01;86.18
61568;BME280;47462;59.172;17.196;2022-11-28T02:12:05;101925.75;;;0.35;85.70
61568;BME280;47462;59.172;17.196;2022-11-28T02:27:09;102223.09;;;1.93;85.85
61568;BME280;47462;59.172;17.196;2022-11-28T02:32:28;102237.47;;;1.87;85.76
61568;BME280;47462;59.172;17.196;2022-11-28T02:37:44;102237.41;;;1.85;85.90
61568;BME280;47462;59.172;17.196;2022-11-28T02:46:05;102178.72;;;1.46;85.51
61568;BME280;47462;59.172;17.196;2022-11-28T02:48:52;102168.22;;;1.40;85.65
61568;BME280;47462;59.172;17.196;2022-11-28T02:51:39;102232.69;;;1.98;86.05
61568;BME280;47462;59.172;17.196;2022-11-28T02:54:09;102119.91;;;1.31;86.12
61568;BME280;47462;59.172;17.196;2022-11-28T02:56:36;102236.47;;;2.09;86.19
61568;BME280;47462;59.172;17.196;2022-11-28T02:59:02;102231.31;;;2.09;86.23
61568;BME280;47462;59.172;17.196;2022-11-28T03:01:37;102200.91;;;1.70;85.99
61568;BME280;47462;59.172;17.196;2022-11-28T03:15:06;101970.88;;;0.27;85.88
61568;BME280;47462;59.172;17.196;2022-11-28T03:18:06;102242.31;;;2.05;85.96
61568;BME280;47462;59.172;17.196;2022-11-28T03:20:52;102242.31;;;2.05;86.11
61568;BME280;47462;59.172;17.196;2022-11-28T03:23:20;102226.00;;;1.77;86.36
61568;BME280;47462;59.172;17.196;2022-11-28T03:28:42;101997.53;;;0.56;85.81
61568;BME280;47462;59.172;17.196;2022-11-28T03:31:53;102244.59;;;2.23;86.29
61568;BME280;47462;59.172;17.196;2022-11-28T03:34:22;102016.81;;;0.96;86.06
61568;BME280;47462;59.172;17.196;2022-11-28T03:36:53;102113.91;;;1.58;86.12
61568;BME280;47462;59.172;17.196;2022-11-28T03:39:23;102028.16;;;1.03;86.07
61568;BME280;47462;59.172;17.196;2022-11-28T03:41:58;102125.31;;;1.66;86.18
61568;BME280;47462;59.172;17.196;2022-11-28T03:44:29;102242.88;;;2.23;86.35
61568;BME280;47462;59.172;17.196;2022-11-28T03:46:58;101916.19;;;0.29;86.38
61568;BME280;47462;59.172;17.196;2022-11-28T03:49:38;101989.34;;;0.68;86.28
61568;BME280;47462;59.172;17.196;2022-11-28T03:52:07;101951.84;;;0.47;86.35
61568;BME280;47462;59.172;17.196;2022-11-28T03:54:45;102229.16;;;2.23;86.84
61568;BME280;47462;59.172;17.196;2022-11-28T03:57:31;102231.09;;;2.30;86.90
61568;BME280;47462;59.172;17.196;2022-11-28T04:00:00;102235.56;;;2.37;87.33
61568;BME280;47462;59.172;17.196;2022-11-28T04:03:13;102189.72;;;1.96;86.91
61568;BME280;47462;59.172;17.196;2022-11-28T04:08:01;101949.31;;;0.75;86.70
61568;BME280;47462;59.172;17.196;2022-11-28T04:13:24;102234.97;;;2.46;87.12
61568;BME280;47462;59.172;17.196;2022-11-28T04:15:58;102227.34;;;2.49;86.81
61568;BME280;47462;59.172;17.196;2022-11-28T04:21:06;102239.38;;;2.48;86.50
61568;BME280;47462;59.172;17.196;2022-11-28T04:23:35;102008.47;;;1.03;86.44
61568;BME280;47462;59.172;17.196;2022-11-28T04:26:06;102021.75;;;1.17;86.84
61568;BME280;47462;59.172;17.196;2022-11-28T04:28:36;101995.91;;;0.85;86.72
61568;BME280;47462;59.172;17.196;2022-11-28T04:31:04;102077.75;;;1.53;87.19
61568;BME280;47462;59.172;17.196;2022-11-28T04:33:32;101973.81;;;0.91;86.47
61568;BME280;47462;59.172;17.196;2022-11-28T04:36:00;102155.56;;;2.02;86.68
61568;BME280;47462;59.172;17.196;2022-11-28T04:38:28;102230.69;;;2.46;86.64
61568;BME280;47462;59.172;17.196;2022-11-28T04:41:04;101980.56;;;0.88;86.36
61568;BME280;47462;59.172;17.196;2022-11-28T04:43:39;102114.50;;;1.78;86.31
61568;BME280;47462;59.172;17.196;2022-11-28T04:46:14;102235.22;;;2.25;86.41
61568;BME280;47462;59.172;17.196;2022-11-28T04:48:41;102233.41;;;2.51;86.40
61568;BME280;47462;59.172;17.196;2022-11-28T04:51:26;102223.06;;;2.49;86.31
61568;BME280;47462;59.172;17.196;2022-11-28T04:56:28;102100.72;;;1.76;86.90
61568;BME280;47462;59.172;17.196;2022-11-28T04:58:56;102008.84;;;1.16;86.35
61568;BME280;47462;59.172;17.196;2022-11-28T05:01:25;102126.00;;;1.89;86.58
61568;BME280;47462;59.172;17.196;2022-11-28T05:03:53;102169.78;;;2.18;86.57
61568;BME280;47462;59.172;17.196;2022-11-28T05:06:33;102227.28;;;2.47;86.18
61568;BME280;47462;59.172;17.196;2022-11-28T05:08:58;102043.00;;;1.39;86.10
61568;BME280;47462;59.172;17.196;2022-11-28T05:11:25;102224.72;;;2.47;86.27
61568;BME280;47462;59.172;17.196;2022-11-28T05:13:50;102251.03;;;2.37;86.73
61568;BME280;47462;59.172;17.196;2022-11-28T05:16:16;102227.06;;;2.40;86.35
61568;BME280;47462;59.172;17.196;2022-11-28T05:18:42;101962.78;;;0.67;86.60
61568;BME280;47462;59.172;17.196;2022-11-28T05:21:08;101997.66;;;1.14;86.67
61568;BME280;47462;59.172;17.196;2022-11-28T05:23:38;102229.00;;;2.47;86.62
61568;BME280;47462;59.172;17.196;2022-11-28T05:26:08;102019.41;;;1.25;86.51
61568;BME280;47462;59.172;17.196;2022-11-28T05:28:35;102063.34;;;1.60;86.50
61568;BME280;47462;59.172;17.196;2022-11-28T05:31:01;102222.41;;;2.57;86.36
61568;BME280;47462;59.172;17.196;2022-11-28T05:33:31;102105.41;;;1.89;86.33
61568;BME280;47462;59.172;17.196;2022-11-28T05:36:05;102217.28;;;2.58;86.61
61568;BME280;47462;59.172;17.196;2022-11-28T05:38:31;102148.84;;;2.07;86.61
61568;BME280;47462;59.172;17.196;2022-11-28T05:40:57;102219.69;;;2.52;86.56
61568;BME280;47462;59.172;17.196;2022-11-28T05:43:24;101992.78;;;1.23;86.54
61568;BME280;47462;59.172;17.196;2022-11-28T05:45:49;102164.84;;;1.97;86.32
61568;BME280;47462;59.172;17.196;2022-11-28T05:48:14;102155.81;;;2.10;86.12
61568;BME280;47462;59.172;17.196;2022-11-28T05:50:41;102170.00;;;1.97;86.39
61568;BME280;47462;59.172;17.196;2022-11-28T05:53:06;102218.84;;;2.23;86.63
61568;BME280;47462;59.172;17.196;2022-11-28T05:55:32;101930.19;;;0.39;86.53
61568;BME280;47462;59.172;17.196;2022-11-28T05:57:57;102039.22;;;1.00;86.28
61568;BME280;47462;59.172;17.196;2022-11-28T06:00:23;102138.22;;;1.68;86.72
61568;BME280;47462;59.172;17.196;2022-11-28T06:02:49;102082.91;;;1.26;86.68
61568;BME280;47462;59.172;17.196;2022-11-28T06:05:14;102229.91;;;2.20;86.76
61568;BME280;47462;59.172;17.196;2022-11-28T06:07:40;101899.72;;;0.24;86.89
61568;BME280;47462;59.172;17.196;2022-11-28T06:10:06;101930.47;;;0.48;86.46
61568;BME280;47462;59.172;17.196;2022-11-28T06:12:32;101965.59;;;0.48;86.38
61568;BME280;47462;59.172;17.196;2022-11-28T06:14:57;102128.50;;;1.59;86.62
61568;BME280;47462;59.172;17.196;2022-11-28T06:17:22;101988.53;;;0.69;86.45
61568;BME280;47462;59.172;17.196;2022-11-28T06:19:48;102233.88;;;2.09;87.05
61568;BME280;47462;59.172;17.196;2022-11-28T06:22:13;102111.63;;;1.40;86.62
61568;BME280;47462;59.172;17.196;2022-11-28T06:24:39;102230.34;;;2.05;86.61
61568;BME280;47462;59.172;17.196;2022-11-28T06:27:04;102129.59;;;1.38;86.90
61568;BME280;47462;59.172;17.196;2022-11-28T06:29:30;102142.13;;;1.55;86.71
61568;BME280;47462;59.172;17.196;2022-11-28T06:31:55;102134.25;;;1.50;86.69
61568;BME280;47462;59.172;17.196;2022-11-28T06:34:21;102204.84;;;1.86;87.03
61568;BME280;47462;59.172;17.196;2022-11-28T06:36:47;102173.28;;;1.64;86.79
61568;BME280;47462;59.172;17.196;2022-11-28T06:39:13;102210.13;;;1.90;87.01
61568;BME280;47462;59.172;17.196;2022-11-28T06:41:40;102211.25;;;1.99;86.95
61568;BME280;47462;59.172;17.196;2022-11-28T06:44:05;102235.81;;;2.16;87.13
61568;BME280;47462;59.172;17.196;2022-11-28T06:46:31;102110.44;;;1.57;87.33
61568;BME280;47462;59.172;17.196;2022-11-28T06:48:56;102147.41;;;1.59;86.99
61568;BME280;47462;59.172;17.196;2022-11-28T06:51:22;102147.31;;;1.85;87.10
61568;BME280;47462;59.172;17.196;2022-11-28T06:53:48;102077.56;;;1.47;87.58
61568;BME280;47462;59.172;17.196;2022-11-28T06:56:16;102106.25;;;1.59;87.72
61568;BME280;47462;59.172;17.196;2022-11-28T06:58:43;102167.00;;;2.12;87.31
61568;BME280;47462;59.172;17.196;2022-11-28T07:01:17;102250.81;;;2.58;86.94
61568;BME280;47462;59.172;17.196;2022-11-28T07:03:43;102150.91;;;1.90;86.92
61568;BME280;47462;59.172;17.196;2022-11-28T07:06:09;102154.31;;;1.89;86.91
61568;BME280;47462;59.172;17.196;2022-11-28T07:08:35;102153.25;;;1.83;86.69
61568;BME280;47462;59.172;17.196;2022-11-28T07:11:30;102115.69;;;1.60;86.85
61568;BME280;47462;59.172;17.196;2022-11-28T07:13:57;102161.22;;;1.90;86.85
61568;BME280;47462;59.172;17.196;2022-11-28T07:16:25;102027.53;;;1.10;86.90
61568;BME280;47462;59.172;17.196;2022-11-28T07:18:52;102288.09;;;2.41;87.38
61568;BME280;47462;59.172;17.196;2022-11-28T07:21:19;102266.63;;;2.42;87.31
61568;BME280;47462;59.172;17.196;2022-11-28T07:23:44;102269.03;;;2.36;87.53
61568;BME280;47462;59.172;17.196;2022-11-28T07:26:12;102127.00;;;1.66;87.66
61568;BME280;47462;59.172;17.196;2022-11-28T07:28:38;102269.56;;;2.54;87.55
61568;BME280;47462;59.172;17.196;2022-11-28T07:31:07;102274.03;;;2.60;87.77
61568;BME280;47462;59.172;17.196;2022-11-28T07:33:33;102194.25;;;2.04;87.41
61568;BME280;47462;59.172;17.196;2022-11-28T07:36:01;102164.41;;;2.10;87.71
61568;BME280;47462;59.172;17.196;2022-11-28T07:38:27;101984.38;;;1.00;87.62
61568;BME280;47462;59.172;17.196;2022-11-28T07:40:53;102204.91;;;2.16;87.79
61568;BME280;47462;59.172;17.196;2022-11-28T07:43:18;102111.50;;;1.93;87.49
61568;BME280;47462;59.172;17.196;2022-11-28T07:45:44;102244.09;;;2.63;87.75
61568;BME280;47462;59.172;17.196;2022-11-28T07:48:09;102138.63;;;2.10;87.57
61568;BME280;47462;59.172;17.196;2022-11-28T07:50:37;102197.06;;;2.42;87.80
61568;BME280;47462;59.172;17.196;2022-11-28T07:53:04;102000.97;;;1.38;87.26
61568;BME280;47462;59.172;17.196;2022-11-28T07:55:30;102088.34;;;1.93;87.20
61568;BME280;47462;59.172;17.196;2022-11-28T07:57:55;102042.03;;;1.64;87.30
61568;BME280;47462;59.172;17.196;2022-11-28T08:00:21;102086.94;;;1.74;87.19
61568;BME280;47462;59.172;17.196;2022-11-28T08:02:47;102197.72;;;2.35;87.21
61568;BME280;47462;59.172;17.196;2022-11-28T08:05:16;102245.09;;;2.68;87.34
61568;BME280;47462;59.172;17.196;2022-11-28T08:07:41;102208.91;;;2.65;87.47
61568;BME280;47462;59.172;17.196;2022-11-28T08:10:07;102176.44;;;2.42;87.12
61568;BME280;47462;59.172;17.196;2022-11-28T08:12:33;102260.97;;;3.14;87.59
61568;BME280;47462;59.172;17.196;2022-11-28T08:14:59;102276.56;;;3.19;87.44
61568;BME280;47462;59.172;17.196;2022-11-28T08:17:24;102042.94;;;1.95;87.41
61568;BME280;47462;59.172;17.196;2022-11-28T08:19:50;102265.59;;;3.28;87.60
61568;BME280;47462;59.172;17.196;2022-11-28T08:22:15;101940.94;;;1.38;87.07
61568;BME280;47462;59.172;17.196;2022-11-28T08:24:41;102019.31;;;1.80;87.11
61568;BME280;47462;59.172;17.196;2022-11-28T08:27:06;102266.34;;;3.22;87.05
61568;BME280;47462;59.172;17.196;2022-11-28T08:29:32;102270.41;;;3.14;87.35
61568;BME280;47462;59.172;17.196;2022-11-28T08:31:58;102190.13;;;2.70;87.39
61568;BME280;47462;59.172;17.196;2022-11-28T08:34:23;102117.88;;;2.35;87.48
61568;BME280;47462;59.172;17.196;2022-11-28T08:36:49;102267.47;;;3.33;87.67
61568;BME280;47462;59.172;17.196;2022-11-28T08:39:14;102131.31;;;2.55;87.16
61568;BME280;47462;59.172;17.196;2022-11-28T08:41:40;102287.53;;;3.44;87.52
61568;BME280;47462;59.172;17.196;2022-11-28T08:44:05;102272.25;;;3.51;87.47
61568;BME280;47462;59.172;17.196;2022-11-28T08:46:32;102162.34;;;2.91;87.50
61568;BME280;47462;59.172;17.196;2022-11-28T08:48:57;102111.88;;;2.67;86.94
61568;BME280;47462;59.172;17.196;2022-11-28T08:51:23;102231.44;;;3.36;87.02
61568;BME280;47462;59.172;17.196;2022-11-28T08:53:49;102273.47;;;3.66;87.15
61568;BME280;47462;59.172;17.196;2022-11-28T08:56:15;102277.84;;;3.68;87.48
61568;BME280;47462;59.172;17.196;2022-11-28T08:58:40;102289.97;;;3.71;87.33
61568;BME280;47462;59.172;17.196;2022-11-28T09:01:17;102300.34;;;3.72;87.46
61568;BME280;47462;59.172;17.196;2022-11-28T09:03:43;102282.84;;;3.62;87.63
61568;BME280;47462;59.172;17.196;2022-11-28T09:06:08;102240.03;;;3.35;87.25
61568;BME280;47462;59.172;17.196;2022-11-28T09:08:34;102179.50;;;2.91;87.36
61568;BME280;47462;59.172;17.196;2022-11-28T09:10:59;102275.00;;;3.57;87.63
61568;BME280;47462;59.172;17.196;2022-11-28T09:13:24;102218.38;;;3.30;87.42
61568;BME280;47462;59.172;17.196;2022-11-28T09:15:50;102314.81;;;3.67;87.66
61568;BME280;47462;59.172;17.196;2022-11-28T09:18:16;102293.41;;;3.71;87.46
61568;BME280;47462;59.172;17.196;2022-11-28T09:20:42;102145.47;;;3.04;87.43
61568;BME280;47462;59.172;17.196;2022-11-28T09:23:08;102224.97;;;3.52;87.38
61568;BME280;47462;59.172;17.196;2022-11-28T09:25:34;102245.69;;;3.55;87.46
61568;BME280;47462;59.172;17.196;2022-11-28T09:28:00;102254.47;;;3.62;87.27
61568;BME280;47462;59.172;17.196;2022-11-28T09:30:26;102248.28;;;3.55;87.48
61568;BME280;47462;59.172;17.196;2022-11-28T09:32:52;102084.44;;;2.70;87.40
61568;BME280;47462;59.172;17.196;2022-11-28T09:35:17;102241.56;;;3.62;87.78
61568;BME280;47462;59.172;17.196;2022-11-28T09:37:43;102281.78;;;3.89;87.76
61568;BME280;47462;59.172;17.196;2022-11-28T09:40:24;102276.63;;;3.89;87.72
61568;BME280;47462;59.172;17.196;2022-11-28T09:42:55;102179.75;;;3.33;87.72
61568;BME280;47462;59.172;17.196;2022-11-28T09:45:24;102262.00;;;3.89;87.36
61568;BME280;47462;59.172;17.196;2022-11-28T09:47:53;102265.50;;;3.91;87.35
61568;BME280;47462;59.172;17.196;2022-11-28T09:50:23;102270.78;;;3.96;87.18
61568;BME280;47462;59.172;17.196;2022-11-28T09:57:50;102267.47;;;4.02;86.78
61568;BME280;47462;59.172;17.196;2022-11-28T10:00:29;102296.28;;;4.19;86.97
61568;BME280;47462;59.172;17.196;2022-11-28T10:05:46;102296.34;;;4.22;86.53
61568;BME280;47462;59.172;17.196;2022-11-28T10:09:20;102189.78;;;3.56;86.22
61568;BME280;47462;59.172;17.196;2022-11-28T10:19:47;102287.16;;;4.35;86.13
61568;BME280;47462;59.172;17.196;2022-11-28T10:22:21;102290.59;;;4.34;86.08
61568;BME280;47462;59.172;17.196;2022-11-28T10:24:55;102213.50;;;3.78;85.93
61568;BME280;47462;59.172;17.196;2022-11-28T10:27:31;102272.13;;;4.17;86.12
61568;BME280;47462;59.172;17.196;2022-11-28T10:30:03;102289.81;;;4.38;85.57
61568;BME280;47462;59.172;17.196;2022-11-28T10:32:41;102293.28;;;4.38;85.42
61568;BME280;47462;59.172;17.196;2022-11-28T10:35:29;102293.34;;;4.41;85.53
61568;BME280;47462;59.172;17.196;2022-11-28T10:37:59;102285.81;;;4.51;85.40
61568;BME280;47462;59.172;17.196;2022-11-28T10:43:00;102271.91;;;4.47;85.32
61568;BME280;47462;59.172;17.196;2022-11-28T10:45:47;102264.84;;;4.38;84.78
61568;BME280;47462;59.172;17.196;2022-11-28T11:01:48;102276.69;;;4.28;85.28
61568;BME280;47462;59.172;17.196;2022-11-28T11:04:21;102260.16;;;4.22;85.35
61568;BME280;47462;59.172;17.196;2022-11-28T11:07:16;102185.31;;;3.87;84.98
61568;BME280;47462;59.172;17.196;2022-11-28T11:09:42;102228.81;;;4.06;85.00
61568;BME280;47462;59.172;17.196;2022-11-28T11:12:18;102290.81;;;4.43;84.82
61568;BME280;47462;59.172;17.196;2022-11-28T11:14:45;102295.06;;;4.42;85.15
61568;BME280;47462;59.172;17.196;2022-11-28T11:17:31;102313.91;;;4.35;84.66
61568;BME280;47462;59.172;17.196;2022-11-28T11:19:58;102255.72;;;4.16;84.65
61568;BME280;47462;59.172;17.196;2022-11-28T11:22:25;102280.19;;;4.31;84.34
61568;BME280;47462;59.172;17.196;2022-11-28T11:25:09;102300.28;;;4.44;84.29
61568;BME280;47462;59.172;17.196;2022-11-28T11:27:38;102296.84;;;4.43;83.82
61568;BME280;47462;59.172;17.196;2022-11-28T11:30:25;102297.53;;;4.36;83.66
61568;BME280;47462;59.172;17.196;2022-11-28T11:32:51;102266.97;;;4.17;84.24
61568;BME280;47462;59.172;17.196;2022-11-28T11:35:24;102292.25;;;4.32;83.99
61568;BME280;47462;59.172;17.196;2022-11-28T11:37:51;102286.78;;;4.18;83.87
61568;BME280;47462;59.172;17.196;2022-11-28T11:40:20;102294.69;;;4.25;83.92
61568;BME280;47462;59.172;17.196;2022-11-28T11:46:13;102300.34;;;4.07;83.73
61568;BME280;47462;59.172;17.196;2022-11-28T11:48:48;102233.09;;;3.68;83.49
61568;BME280;47462;59.172;17.196;2022-11-28T11:51:26;102254.84;;;3.78;83.69
61568;BME280;47462;59.172;17.196;2022-11-28T11:54:19;102295.91;;;4.03;83.86
61568;BME280;47462;59.172;17.196;2022-11-28T11:56:47;102297.72;;;4.06;83.68
61568;BME280;47462;59.172;17.196;2022-11-28T11:59:19;102268.88;;;3.89;83.59
61568;BME280;47462;59.172;17.196;2022-11-28T12:01:50;102306.38;;;4.08;83.57
61568;BME280;47462;59.172;17.196;2022-11-28T12:04:26;102299.41;;;4.05;83.64
61568;BME280;47462;59.172;17.196;2022-11-28T12:06:53;102304.34;;;3.96;83.96
61568;BME280;47462;59.172;17.196;2022-11-28T12:09:27;102302.84;;;4.04;83.39
61568;BME280;47462;59.172;17.196;2022-11-28T12:12:09;102265.22;;;3.81;83.62
61568;BME280;47462;59.172;17.196;2022-11-28T12:14:36;102308.63;;;3.94;83.65
61568;BME280;47462;59.172;17.196;2022-11-28T12:25:56;102259.72;;;3.67;83.47
61568;BME280;47462;59.172;17.196;2022-11-28T12:36:28;102307.47;;;3.83;83.38
61568;BME280;47462;59.172;17.196;2022-11-28T12:39:07;102298.06;;;3.85;83.37
61568;BME280;47462;59.172;17.196;2022-11-28T12:53:22;102303.25;;;3.86;83.88
61568;BME280;47462;59.172;17.196;2022-11-28T12:56:14;102305.81;;;3.85;83.45
61568;BME280;47462;59.172;17.196;2022-11-28T12:58:39;102304.00;;;3.82;83.38
61568;BME280;47462;59.172;17.196;2022-11-28T13:09:16;102296.34;;;3.85;83.28
61568;BME280;47462;59.172;17.196;2022-11-28T13:15:02;102310.16;;;3.87;83.26
61568;BME280;47462;59.172;17.196;2022-11-28T13:17:37;102304.13;;;3.87;83.25
61568;BME280;47462;59.172;17.196;2022-11-28T13:25:39;102310.16;;;3.87;83.37
61568;BME280;47462;59.172;17.196;2022-11-28T13:28:23;102288.41;;;3.78;83.13
61568;BME280;47462;59.172;17.196;2022-11-28T13:33:49;102297.19;;;3.86;83.16
61568;BME280;47462;59.172;17.196;2022-11-28T13:36:25;102279.72;;;3.74;82.94
61568;BME280;47462;59.172;17.196;2022-11-28T13:39:04;102103.19;;;2.64;83.10
61568;BME280;47462;59.172;17.196;2022-11-28T13:41:43;102247.19;;;3.47;83.47
61568;BME280;47462;59.172;17.196;2022-11-28T13:44:16;102259.47;;;3.56;83.43
61568;BME280;47462;59.172;17.196;2022-11-28T13:46:44;102258.56;;;3.54;83.28
61568;BME280;47462;59.172;17.196;2022-11-28T13:49:24;102304.75;;;3.78;83.54
61568;BME280;47462;59.172;17.196;2022-11-28T13:54:50;102302.22;;;3.80;83.77
61568;BME280;47462;59.172;17.196;2022-11-28T13:57:36;102301.25;;;3.74;83.73
61568;BME280;47462;59.172;17.196;2022-11-28T14:02:35;102266.16;;;3.48;83.48
61568;BME280;47462;59.172;17.196;2022-11-28T14:05:01;102312.38;;;3.73;83.86
61568;BME280;47462;59.172;17.196;2022-11-28T14:07:31;102314.66;;;3.61;83.54
61568;BME280;47462;59.172;17.196;2022-11-28T14:10:09;102319.09;;;3.65;83.80
61568;BME280;47462;59.172;17.196;2022-11-28T14:18:43;102302.41;;;3.52;83.63
61568;BME280;47462;59.172;17.196;2022-11-28T14:27:02;102313.06;;;3.65;84.04
61568;BME280;47462;59.172;17.196;2022-11-28T14:29:40;102315.69;;;3.66;83.86
61568;BME280;47462;59.172;17.196;2022-11-28T14:32:06;102301.63;;;3.56;83.98
61568;BME280;47462;59.172;17.196;2022-11-28T14:34:46;102327.75;;;3.69;83.81
61568;BME280;47462;59.172;17.196;2022-11-28T14:39:44;102274.59;;;3.42;83.72
61568;BME280;47462;59.172;17.196;2022-11-28T14:49:47;102298.28;;;3.59;83.95
61568;BME280;47462;59.172;17.196;2022-11-28T14:52:24;102314.75;;;3.64;84.01
61568;BME280;47462;59.172;17.196;2022-11-28T14:54:51;102254.50;;;3.30;84.15
61568;BME280;47462;59.172;17.196;2022-11-28T14:57:21;102284.22;;;3.48;84.29
61568;BME280;47462;59.172;17.196;2022-11-28T14:59:48;102310.59;;;3.69;84.34
61568;BME280;47462;59.172;17.196;2022-11-28T15:05:30;102326.78;;;3.64;84.20
61568;BME280;47462;59.172;17.196;2022-11-28T15:10:53;102332.81;;;3.64;83.84
61568;BME280;47462;59.172;17.196;2022-11-28T15:16:12;102314.50;;;3.55;84.04
61568;BME280;47462;59.172;17.196;2022-11-28T15:18:44;102312.81;;;3.55;83.83
61568;BME280;47462;59.172;17.196;2022-11-28T15:21:14;102285.72;;;3.39;83.80
61568;BME280;47462;59.172;17.196;2022-11-28T15:23:40;102306.69;;;3.52;83.95
61568;BME280;47462;59.172;17.196;2022-11-28T15:26:06;102332.97;;;3.70;84.00
61568;BME280;47462;59.172;17.196;2022-11-28T15:28:41;102291.97;;;3.48;83.79
61568;BME280;47462;59.172;17.196;2022-11-28T15:31:15;102327.50;;;3.58;83.95
61568;BME280;47462;59.172;17.196;2022-11-28T15:33:42;102331.09;;;3.63;84.05
61568;BME280;47462;59.172;17.196;2022-11-28T15:36:22;102329.31;;;3.62;83.58
61568;BME280;47462;59.172;17.196;2022-11-28T15:38:49;102312.72;;;3.52;84.16
61568;BME280;47462;59.172;17.196;2022-11-28T15:41:20;102331.16;;;3.66;83.68
61568;BME280;47462;59.172;17.196;2022-11-28T15:43:46;102296.19;;;3.46;83.67
61568;BME280;47462;59.172;17.196;2022-11-28T15:46:18;102322.28;;;3.56;83.55
61568;BME280;47462;59.172;17.196;2022-11-28T15:48:48;102306.59;;;3.49;83.86
61568;BME280;47462;59.172;17.196;2022-11-28T15:53:47;102325.97;;;3.65;83.71
61568;BME280;47462;59.172;17.196;2022-11-28T15:56:14;102309.28;;;3.53;83.90
61568;BME280;47462;59.172;17.196;2022-11-28T15:58:41;102298.91;;;3.50;84.02